Royal Viking — VG4145 — position and weather

sailwx.info

Track history (hours):
 
Tides and Currents Weather Stations Pressure Air Temp Water Temp Dewpoint Dewpoint Depression Visibility Wind Speed Wind Dir Waves Ship Positions

Royal Viking

Last reported at 2017-Nov-17 22:46 UTC. Time now 2017-Nov-24 20:43 UTC.
Position N 48°57' W 125°33'.

Length 23 m.

Type: Fishing. MMSI: 316009852.

Date/timePositionNaut miles runAvg speedWind from/ knotsBaromVisibWave heightAir tempDewpointWater temp
2017-Nov-17 22:46N 48°57' W 125°33'1 2.3
2017-Nov-17 22:30N 48°57' W 125°32'1 1.5
2017-Nov-17 22:00N 48°57' W 125°33'0 0.2
2017-Nov-17 21:30N 48°57' W 125°33'0 0.0
2017-Nov-17 21:00N 48°57' W 125°33'0 0.0
2017-Nov-17 20:30N 48°57' W 125°33'0 0.1
2017-Nov-17 20:00N 48°57' W 125°33'0 0.0
2017-Nov-17 19:30N 48°57' W 125°33'0 0.1
2017-Nov-17 19:00N 48°57' W 125°33'0 0.0
2017-Nov-17 18:30N 48°57' W 125°33'0 0.1
2017-Nov-17 18:00N 48°57' W 125°33'0 0.0
2017-Nov-17 17:30N 48°57' W 125°33'0 0.0
2017-Nov-17 17:00N 48°57' W 125°33'0 0.0
2017-Nov-17 16:30N 48°57' W 125°33'0 0.0
2017-Nov-17 16:00N 48°57' W 125°33'0 0.0
2017-Nov-17 15:30N 48°57' W 125°33'0 0.0
2017-Nov-17 15:00N 48°57' W 125°33'0 0.0
2017-Nov-17 14:30N 48°57' W 125°33'0 0.0
2017-Nov-17 14:00N 48°57' W 125°33'0 0.1
2017-Nov-17 13:30N 48°57' W 125°33'0 0.1
2017-Nov-17 13:00N 48°57' W 125°33'0 0.0
2017-Nov-17 12:30N 48°57' W 125°33'0 0.0
2017-Nov-17 12:00N 48°57' W 125°33'0 0.1
2017-Nov-17 11:30N 48°57' W 125°33'0 0.0
2017-Nov-17 11:00N 48°57' W 125°33'0 0.1
2017-Nov-17 10:30N 48°57' W 125°33'0 0.1
2017-Nov-17 10:00N 48°57' W 125°33'0 0.1
2017-Nov-17 09:30N 48°57' W 125°33'0 0.0
2017-Nov-17 09:00N 48°57' W 125°33'0 0.1
2017-Nov-17 08:30N 48°57' W 125°33'0 0.1
2017-Nov-17 08:00N 48°57' W 125°33'0 0.1
2017-Nov-17 07:30N 48°57' W 125°33'0 0.0
2017-Nov-17 07:00N 48°57' W 125°33'0 0.0
2017-Nov-17 06:30N 48°57' W 125°33'0 0.0
2017-Nov-17 06:00N 48°57' W 125°33'0 0.1
2017-Nov-17 05:30N 48°57' W 125°33'0 0.1
2017-Nov-17 05:00N 48°57' W 125°33'0 0.1
2017-Nov-17 04:30N 48°57' W 125°33'0 0.0
2017-Nov-17 04:00N 48°57' W 125°33'0 0.0
2017-Nov-17 03:30N 48°57' W 125°33'0 0.1
2017-Nov-17 03:00N 48°57' W 125°33'0 0.1
2017-Nov-17 02:30N 48°57' W 125°33'0 0.0
2017-Nov-17 02:00N 48°57' W 125°33'0 0.0
2017-Nov-17 01:30N 48°57' W 125°33'0 0.0
2017-Nov-17 01:00N 48°57' W 125°33'0 0.0
2017-Nov-17 00:30N 48°57' W 125°33'0 0.0
2017-Nov-17 00:00N 48°57' W 125°33'0 0.1
2017-Nov-16 23:30N 48°57' W 125°33'0 0.1
2017-Nov-16 23:00N 48°57' W 125°33'0 0.0
2017-Nov-16 22:30N 48°57' W 125°33'0 0.0
2017-Nov-16 22:00N 48°57' W 125°33'0 0.0
2017-Nov-16 21:30N 48°57' W 125°33'0 0.0
2017-Nov-16 21:00N 48°57' W 125°33'0 0.0
2017-Nov-16 20:30N 48°57' W 125°33'0 0.0
2017-Nov-16 20:00N 48°57' W 125°33'0 0.0
2017-Nov-16 19:30N 48°57' W 125°33'0 0.0
2017-Nov-16 19:00N 48°57' W 125°33'0 0.0
2017-Nov-16 18:30N 48°57' W 125°33'0 0.0
2017-Nov-16 18:00N 48°57' W 125°33'0 0.0
2017-Nov-16 17:30N 48°57' W 125°33'0 0.6
2017-Nov-16 17:00N 48°57' W 125°33'  
2017-Nov-13 22:22N 48°57' W 125°33'0 0.0
2017-Nov-13 22:01N 48°57' W 125°33'1 0.0
2017-Nov-13 02:00N 48°56' W 125°32'0 0.0
2017-Nov-13 01:30N 48°56' W 125°32'0 0.0
2017-Nov-13 01:00N 48°56' W 125°32'2 3.2
2017-Nov-13 00:31N 48°55' W 125°31'2 3.5
2017-Nov-13 00:01N 48°54' W 125°33'2 4.6
2017-Nov-12 23:30N 48°53' W 125°36'3 6.5
2017-Nov-12 23:01N 48°53' W 125°41'3 6.7
2017-Nov-12 22:31N 48°52' W 125°46'3 7.0
2017-Nov-12 22:01N 48°51' W 125°51'3 6.8
2017-Nov-12 21:30N 48°51' W 125°56'3 6.9
2017-Nov-12 21:00N 48°50' W 126°02'4 6.6
2017-Nov-12 20:27N 48°50' W 126°07'15 2.0
2017-Nov-12 13:04N 48°52' W 126°29'0 2.2
2017-Nov-12 13:00N 48°53' W 126°29'1 2.2
2017-Nov-12 12:23N 48°54' W 126°28'1 0.0
2017-Nov-10 12:40N 48°54' W 126°29'1 1.7
2017-Nov-10 12:14N 48°53' W 126°28'0 1.8
2017-Nov-10 12:00N 48°53' W 126°28'14 2.1
2017-Nov-10 05:12N 48°48' W 126°08'2 7.6
2017-Nov-10 05:00N 48°48' W 126°06'4 8.0
2017-Nov-10 04:30N 48°49' W 125°60'4 8.3
2017-Nov-10 04:01N 48°50' W 125°54'4 8.1
2017-Nov-10 03:31N 48°52' W 125°48'4 7.7
2017-Nov-10 03:01N 48°53' W 125°42'4 7.0
2017-Nov-10 02:31N 48°54' W 125°37'4 7.4
2017-Nov-10 02:01N 48°55' W 125°32'2 3.6
2017-Nov-10 01:31N 48°56' W 125°32'0 0.0
2017-Nov-10 01:01N 48°56' W 125°32'0 0.0
2017-Nov-10 00:30N 48°56' W 125°32'0 0.0
2017-Nov-10 00:01N 48°56' W 125°32'0 0.0
2017-Nov-09 23:31N 48°56' W 125°32'0 0.0
2017-Nov-09 23:01N 48°56' W 125°32'0 0.2
2017-Nov-09 22:31N 48°56' W 125°32'  
Track history (hours):
 
Tides and Currents Weather Stations Pressure Air Temp Water Temp Dewpoint Dewpoint Depression Visibility Wind Speed Wind Dir Waves Ship Positions

Royal Viking

Last reported at 2017-Nov-17 22:46 UTC. Time now 2017-Nov-24 20:43 UTC.
Position N 48°57' W 125°33'.

Length 23 m.

Type: Fishing. MMSI: 316009852.

Date/timePositionNaut miles runAvg speedWind from/ knotsBaromVisibWave heightAir tempDewpointWater temp
2017-Nov-17 22:46N 48°57' W 125°33'1 2.3
2017-Nov-17 22:30N 48°57' W 125°32'1 1.5
2017-Nov-17 22:00N 48°57' W 125°33'0 0.2
2017-Nov-17 21:30N 48°57' W 125°33'0 0.0
2017-Nov-17 21:00N 48°57' W 125°33'0 0.0
2017-Nov-17 20:30N 48°57' W 125°33'0 0.1
2017-Nov-17 20:00N 48°57' W 125°33'0 0.0
2017-Nov-17 19:30N 48°57' W 125°33'0 0.1
2017-Nov-17 19:00N 48°57' W 125°33'0 0.0
2017-Nov-17 18:30N 48°57' W 125°33'0 0.1
2017-Nov-17 18:00N 48°57' W 125°33'0 0.0
2017-Nov-17 17:30N 48°57' W 125°33'0 0.0
2017-Nov-17 17:00N 48°57' W 125°33'0 0.0
2017-Nov-17 16:30N 48°57' W 125°33'0 0.0
2017-Nov-17 16:00N 48°57' W 125°33'0 0.0
2017-Nov-17 15:30N 48°57' W 125°33'0 0.0
2017-Nov-17 15:00N 48°57' W 125°33'0 0.0
2017-Nov-17 14:30N 48°57' W 125°33'0 0.0
2017-Nov-17 14:00N 48°57' W 125°33'0 0.1
2017-Nov-17 13:30N 48°57' W 125°33'0 0.1
2017-Nov-17 13:00N 48°57' W 125°33'0 0.0
2017-Nov-17 12:30N 48°57' W 125°33'0 0.0
2017-Nov-17 12:00N 48°57' W 125°33'0 0.1
2017-Nov-17 11:30N 48°57' W 125°33'0 0.0
2017-Nov-17 11:00N 48°57' W 125°33'0 0.1
2017-Nov-17 10:30N 48°57' W 125°33'0 0.1
2017-Nov-17 10:00N 48°57' W 125°33'0 0.1
2017-Nov-17 09:30N 48°57' W 125°33'0 0.0
2017-Nov-17 09:00N 48°57' W 125°33'0 0.1
2017-Nov-17 08:30N 48°57' W 125°33'0 0.1
2017-Nov-17 08:00N 48°57' W 125°33'0 0.1
2017-Nov-17 07:30N 48°57' W 125°33'0 0.0
2017-Nov-17 07:00N 48°57' W 125°33'0 0.0
2017-Nov-17 06:30N 48°57' W 125°33'0 0.0
2017-Nov-17 06:00N 48°57' W 125°33'0 0.1
2017-Nov-17 05:30N 48°57' W 125°33'0 0.1
2017-Nov-17 05:00N 48°57' W 125°33'0 0.1
2017-Nov-17 04:30N 48°57' W 125°33'0 0.0
2017-Nov-17 04:00N 48°57' W 125°33'0 0.0
2017-Nov-17 03:30N 48°57' W 125°33'0 0.1
2017-Nov-17 03:00N 48°57' W 125°33'0 0.1
2017-Nov-17 02:30N 48°57' W 125°33'0 0.0
2017-Nov-17 02:00N 48°57' W 125°33'0 0.0
2017-Nov-17 01:30N 48°57' W 125°33'0 0.0
2017-Nov-17 01:00N 48°57' W 125°33'0 0.0
2017-Nov-17 00:30N 48°57' W 125°33'0 0.0
2017-Nov-17 00:00N 48°57' W 125°33'0 0.1
2017-Nov-16 23:30N 48°57' W 125°33'0 0.1
2017-Nov-16 23:00N 48°57' W 125°33'0 0.0
2017-Nov-16 22:30N 48°57' W 125°33'0 0.0
2017-Nov-16 22:00N 48°57' W 125°33'0 0.0
2017-Nov-16 21:30N 48°57' W 125°33'0 0.0
2017-Nov-16 21:00N 48°57' W 125°33'0 0.0
2017-Nov-16 20:30N 48°57' W 125°33'0 0.0
2017-Nov-16 20:00N 48°57' W 125°33'0 0.0
2017-Nov-16 19:30N 48°57' W 125°33'0 0.0
2017-Nov-16 19:00N 48°57' W 125°33'0 0.0
2017-Nov-16 18:30N 48°57' W 125°33'0 0.0
2017-Nov-16 18:00N 48°57' W 125°33'0 0.0
2017-Nov-16 17:30N 48°57' W 125°33'0 0.6
2017-Nov-16 17:00N 48°57' W 125°33'  
2017-Nov-13 22:22N 48°57' W 125°33'0 0.0
2017-Nov-13 22:01N 48°57' W 125°33'1 0.0
2017-Nov-13 02:00N 48°56' W 125°32'0 0.0
2017-Nov-13 01:30N 48°56' W 125°32'0 0.0
2017-Nov-13 01:00N 48°56' W 125°32'2 3.2
2017-Nov-13 00:31N 48°55' W 125°31'2 3.5
2017-Nov-13 00:01N 48°54' W 125°33'2 4.6
2017-Nov-12 23:30N 48°53' W 125°36'3 6.5
2017-Nov-12 23:01N 48°53' W 125°41'3 6.7
2017-Nov-12 22:31N 48°52' W 125°46'3 7.0
2017-Nov-12 22:01N 48°51' W 125°51'3 6.8
2017-Nov-12 21:30N 48°51' W 125°56'3 6.9
2017-Nov-12 21:00N 48°50' W 126°02'4 6.6
2017-Nov-12 20:27N 48°50' W 126°07'15 2.0
2017-Nov-12 13:04N 48°52' W 126°29'0 2.2
2017-Nov-12 13:00N 48°53' W 126°29'1 2.2
2017-Nov-12 12:23N 48°54' W 126°28'1 0.0
2017-Nov-10 12:40N 48°54' W 126°29'1 1.7
2017-Nov-10 12:14N 48°53' W 126°28'0 1.8
2017-Nov-10 12:00N 48°53' W 126°28'14 2.1
2017-Nov-10 05:12N 48°48' W 126°08'2 7.6
2017-Nov-10 05:00N 48°48' W 126°06'4 8.0
2017-Nov-10 04:30N 48°49' W 125°60'4 8.3
2017-Nov-10 04:01N 48°50' W 125°54'4 8.1
2017-Nov-10 03:31N 48°52' W 125°48'4 7.7
2017-Nov-10 03:01N 48°53' W 125°42'4 7.0
2017-Nov-10 02:31N 48°54' W 125°37'4 7.4
2017-Nov-10 02:01N 48°55' W 125°32'2 3.6
2017-Nov-10 01:31N 48°56' W 125°32'0 0.0
2017-Nov-10 01:01N 48°56' W 125°32'0 0.0
2017-Nov-10 00:30N 48°56' W 125°32'0 0.0
2017-Nov-10 00:01N 48°56' W 125°32'0 0.0
2017-Nov-09 23:31N 48°56' W 125°32'0 0.0
2017-Nov-09 23:01N 48°56' W 125°32'0 0.2
2017-Nov-09 22:31N 48°56' W 125°32'  

Dump ship's entire track history